logo



Minimumtemperatur heute 3.2     Maximumtemperatur heute 4.8
Datum Zeit
MEZ
Lufttemperatur
C
Windrichtung
Grad
Wind Mittel
Km/h
Wind Min
Km/h
Wind Max
Km/h
rel. Feuchte
%
2017-04-30 01:50:00 3.6 93 0.6 1.1 4.0 90
2017-04-30 01:45:00 3.5 102 0.8 2.0 3.8 90
2017-04-30 01:40:00 3.4 118 1.0 2.5 4.5 90
2017-04-30 01:35:00 3.3 139 0.8 2.1 4.4 90
2017-04-30 01:30:00 3.3 133 0.8 1.9 4.2 90
2017-04-30 01:25:00 3.3 109 0.7 0.8 4.0 90
2017-04-30 01:20:00 3.2 104 0.4 0.7 2.4 90
2017-04-30 01:15:00 3.2 95 0.2 0.2 2.0 90
2017-04-30 01:10:00 3.4 59 0.2 0.2 1.3 90
2017-04-30 01:05:00 3.5 87 0.0 0.0 0.0 90
2017-04-30 01:00:00 3.5 114 0.0 0.0 0.0 89
2017-04-30 00:55:00 3.7 115 0.1 0.0 1.3 89
2017-04-30 00:50:00 4.0 116 0.3 0.3 2.9 89
2017-04-30 00:45:00 4.2 54 0.3 0.3 1.5 89
2017-04-30 00:40:00 4.1 133 0.5 1.4 3.1 89
2017-04-30 00:35:00 4.1 154 0.4 0.6 3.4 89
2017-04-30 00:30:00 4.2 115 0.4 0.5 2.5 89
2017-04-30 00:25:00 4.1 105 0.2 0.2 1.6 88
2017-04-30 00:20:00 4.3 101 0.3 0.2 2.3 88
2017-04-30 00:15:00 4.3 110 0.4 0.5 2.7 88
2017-04-30 00:10:00 4.4 110 0.3 0.4 1.8 88
2017-04-30 00:05:00 4.6 121 0.3 0.6 1.2 88
2017-04-30 00:00:00 4.8 131 0.4 1.2 2.0 87
www.zamg.ac.at

klagenfurt@zamg.ac.at